Time;durP1;ratioP1;P1;durP2;ratioP2;P2;SDS_P1;SDS_P2;PMS_P1;PMS_P2;Temp;Humidity;BMP_temperature;BMP_pressure;BME280_temperature;BME280_humidity;BME280_pressure;Samples;Min_cycle;Max_cycle;Signal;HPM_P1;HPM_P2
2021/01/01 00:01:29;;;;;;;7.60;7.00;;;6.90;44.20;;;;;;5009865;28;20514;-64
2021/01/01 00:03:55;;;;;;;6.83;6.20;;;6.80;43.90;;;;;;5009757;28;20900;-64
2021/01/01 00:06:20;;;;;;;7.87;7.27;;;6.80;43.70;;;;;;5009542;28;20271;-65
2021/01/01 00:08:45;;;;;;;7.10;6.50;;;6.70;43.90;;;;;;5009493;28;20290;-64
2021/01/01 00:11:15;;;;;;;7.10;6.50;;;6.70;44.50;;;;;;5009766;28;20184;-64
2021/01/01 00:13:41;;;;;;;8.40;7.60;;;6.60;44.50;;;;;;5009465;28;20198;-65
2021/01/01 00:16:08;;;;;;;9.33;7.93;;;6.70;44.80;;;;;;5009688;28;20499;-64
2021/01/01 00:18:34;;;;;;;8.93;8.13;;;6.60;44.70;;;;;;5009534;28;20180;-64
2021/01/01 00:20:59;;;;;;;8.10;7.30;;;6.80;44.60;;;;;;5009338;28;20416;-64
2021/01/01 00:23:25;;;;;;;9.27;8.37;;;7.00;43.80;;;;;;5009399;28;20178;-64
2021/01/01 00:25:50;;;;;;;8.77;8.00;;;7.00;43.70;;;;;;5010292;28;20193;-64
2021/01/01 00:28:16;;;;;;;8.47;7.67;;;7.10;43.00;;;;;;5011354;28;20212;-64
2021/01/01 00:30:41;;;;;;;8.70;7.90;;;7.20;42.80;;;;;;5011444;28;20193;-64
2021/01/01 00:33:07;;;;;;;9.10;8.40;;;7.20;42.70;;;;;;5011293;28;20252;-64
2021/01/01 00:35:32;;;;;;;8.57;7.77;;;7.20;43.00;;;;;;5010082;28;20201;-64
2021/01/01 00:37:58;;;;;;;8.70;7.90;;;7.30;42.50;;;;;;5010741;28;20185;-64
2021/01/01 00:40:23;;;;;;;8.57;7.80;;;7.30;42.20;;;;;;5011171;28;20789;-65
2021/01/01 00:42:49;;;;;;;9.63;8.67;;;7.20;42.50;;;;;;5011449;28;20652;-64
2021/01/01 00:45:14;;;;;;;9.60;8.80;;;7.10;43.60;;;;;;5011321;28;20208;-64
2021/01/01 00:47:40;;;;;;;7.73;7.03;;;6.90;43.00;;;;;;5011085;28;20197;-64
2021/01/01 00:50:06;;;;;;;7.67;7.10;;;6.70;43.70;;;;;;5011357;28;20173;-64
2021/01/01 00:52:31;;;;;;;11.07;9.00;;;6.80;44.00;;;;;;5011264;28;20177;-64
2021/01/01 00:54:57;;;;;;;10.27;9.27;;;6.50;44.70;;;;;;5011156;28;20505;-64
2021/01/01 00:57:22;;;;;;;9.63;8.77;;;6.40;45.40;;;;;;5011154;28;20169;-64
2021/01/01 00:59:48;;;;;;;10.57;9.57;;;6.60;45.20;;;;;;5011275;28;20170;-64
2021/01/01 01:02:13;;;;;;;8.87;8.07;;;6.80;44.90;;;;;;5011285;28;20172;-64
2021/01/01 01:04:39;;;;;;;8.73;8.03;;;7.00;44.40;;;;;;5011133;28;20202;-64
2021/01/01 01:07:04;;;;;;;8.83;8.13;;;7.00;43.80;;;;;;5010783;28;20187;-65
2021/01/01 01:09:30;;;;;;;8.17;7.47;;;7.20;43.20;;;;;;5011061;28;20179;-64
2021/01/01 01:11:55;;;;;;;9.73;8.93;;;7.00;43.30;;;;;;5011120;28;20606;-64
2021/01/01 01:14:21;;;;;;;9.53;8.63;;;7.00;44.00;;;;;;5011014;28;20248;-64
2021/01/01 01:16:46;;;;;;;11.67;10.57;;;7.10;43.40;;;;;;5010983;28;20246;-64
2021/01/01 01:19:12;;;;;;;11.03;10.10;;;7.30;43.00;;;;;;5010866;28;20176;-65
2021/01/01 01:21:37;;;;;;;9.57;8.67;;;7.30;42.60;;;;;;5011011;28;20201;-64
2021/01/01 01:24:03;;;;;;;10.00;9.20;;;7.30;42.50;;;;;;5010744;28;20219;-64
2021/01/01 01:26:29;;;;;;;9.30;8.47;;;7.20;43.10;;;;;;5010882;28;20177;-65
2021/01/01 01:28:54;;;;;;;9.77;8.87;;;7.00;43.10;;;;;;5013115;28;20223;-64
2021/01/01 01:31:20;;;;;;;9.60;8.73;;;6.70;43.80;;;;;;5014924;28;20184;-64
2021/01/01 01:33:46;;;;;;;10.47;9.47;;;6.60;44.30;;;;;;5014655;28;20196;-64
2021/01/01 01:36:12;;;;;;;10.50;9.50;;;6.80;44.60;;;;;;5014721;28;20667;-64
2021/01/01 01:38:37;;;;;;;9.67;8.73;;;6.90;44.30;;;;;;5014431;28;20416;-64
2021/01/01 01:41:03;;;;;;;9.30;8.50;;;7.10;44.20;;;;;;5014572;28;20453;-64
2021/01/01 01:43:29;;;;;;;9.40;8.50;;;7.10;43.50;;;;;;5014549;28;20181;-65
2021/01/01 01:45:56;;;;;;;9.17;8.27;;;7.00;43.60;;;;;;5014652;28;20803;-65
2021/01/01 01:48:34;;;;;;;9.57;8.77;;;7.20;43.50;;;;;;5014381;28;20451;-64
2021/01/01 01:51:00;;;;;;;8.60;8.00;;;7.10;43.00;;;;;;5014560;28;20793;-64
2021/01/01 01:53:29;;;;;;;8.57;7.77;;;7.10;43.30;;;;;;5014531;28;20415;-65
2021/01/01 01:55:56;;;;;;;10.23;9.10;;;6.70;43.90;;;;;;5014637;28;20515;-64
2021/01/01 01:58:22;;;;;;;10.57;9.57;;;6.60;44.20;;;;;;5014366;28;20422;-64
2021/01/01 02:01:00;;;;;;;10.20;9.30;;;6.40;44.60;;;;;;5014404;28;20458;-64
2021/01/01 02:03:29;;;;;;;8.67;7.97;;;6.30;45.60;;;;;;5014111;28;20431;-64
2021/01/01 02:05:56;;;;;;;9.47;8.63;;;6.60;44.50;;;;;;5014171;28;20463;-64
2021/01/01 02:08:22;;;;;;;9.27;8.40;;;6.60;44.70;;;;;;5013856;28;20459;-65
2021/01/01 02:10:51;;;;;;;10.27;9.37;;;6.50;44.60;;;;;;5014085;28;20427;-64
2021/01/01 02:13:17;;;;;;;9.30;8.50;;;6.60;44.60;;;;;;5014032;28;20818;-64
2021/01/01 02:15:43;;;;;;;9.47;8.67;;;6.70;44.30;;;;;;5013983;28;20937;-64
2021/01/01 02:18:08;;;;;;;7.63;6.93;;;6.70;44.20;;;;;;5013829;28;20419;-64
2021/01/01 02:20:35;;;;;;;9.53;8.53;;;6.80;44.10;;;;;;5013912;28;20176;-64
2021/01/01 02:23:00;;;;;;;8.90;8.10;;;6.60;44.50;;;;;;5013941;28;20223;-65
2021/01/01 02:25:26;;;;;;;10.33;9.43;;;6.40;45.10;;;;;;5013711;28;20459;-64
2021/01/01 02:27:51;;;;;;;10.10;9.20;;;6.70;44.80;;;;;;5013528;28;20702;-64
2021/01/01 02:30:18;;;;;;;9.33;8.43;;;6.50;45.50;;;;;;5013742;28;20185;-64
2021/01/01 02:32:43;;;;;;;9.43;8.63;;;6.50;45.20;;;;;;5013462;28;20207;-64
2021/01/01 02:35:09;;;;;;;9.63;8.33;;;6.50;45.40;;;;;;5013513;28;20455;-64
2021/01/01 02:37:35;;;;;;;10.10;9.20;;;6.50;45.30;;;;;;5013333;28;20273;-64
2021/01/01 02:40:01;;;;;;;9.13;8.33;;;6.40;44.70;;;;;;5012227;28;20456;-64
2021/01/01 02:42:26;;;;;;;9.17;8.37;;;6.50;45.20;;;;;;5013487;28;20521;-64
2021/01/01 02:44:52;;;;;;;9.27;8.50;;;6.70;45.10;;;;;;5013404;28;20202;-64
2021/01/01 02:47:17;;;;;;;10.70;9.70;;;6.70;45.10;;;;;;5013211;28;20291;-64
2021/01/01 02:49:43;;;;;;;9.30;8.20;;;6.90;44.80;;;;;;5045127;28;20184;-64
2021/01/01 02:52:09;;;;;;;10.03;9.13;;;6.70;45.10;;;;;;5013362;28;20222;-65
2021/01/01 02:54:35;;;;;;;9.23;8.37;;;7.00;45.20;;;;;;5013235;28;20914;-65
2021/01/01 02:57:00;;;;;;;10.47;9.47;;;7.00;44.60;;;;;;5013198;28;20806;-64
2021/01/01 02:59:26;;;;;;;10.90;9.80;;;7.10;44.50;;;;;;5013195;28;20273;-64
2021/01/01 03:01:52;;;;;;;9.40;8.43;;;7.10;44.80;;;;;;5013144;28;20196;-64
2021/01/01 03:04:18;;;;;;;9.70;8.90;;;7.10;43.80;;;;;;5013201;28;20675;-64
2021/01/01 03:06:43;;;;;;;10.07;8.47;;;7.20;43.70;;;;;;5013364;28;20474;-64
2021/01/01 03:09:09;;;;;;;8.93;8.17;;;7.00;45.40;;;;;;5013009;28;20209;-64
2021/01/01 03:11:35;;;;;;;9.90;9.10;;;6.60;45.60;;;;;;5013199;28;20213;-64
2021/01/01 03:14:00;;;;;;;10.13;9.23;;;6.70;45.90;;;;;;5013089;28;20204;-64
2021/01/01 03:16:26;;;;;;;9.97;9.07;;;6.70;46.00;;;;;;5012942;28;20546;-65
2021/01/01 03:18:51;;;;;;;9.40;8.50;;;6.70;45.20;;;;;;5012703;28;20775;-64
2021/01/01 03:21:18;;;;;;;10.80;9.80;;;6.20;48.00;;;;;;5012860;28;20185;-64
2021/01/01 03:23:43;;;;;;;11.03;9.97;;;6.30;47.80;;;;;;5012705;28;20637;-64
2021/01/01 03:26:09;;;;;;;11.13;10.00;;;6.40;47.60;;;;;;5011481;28;20459;-64
2021/01/01 03:28:34;;;;;;;10.97;9.97;;;6.30;47.00;;;;;;5012372;28;20240;-64
2021/01/01 03:31:01;;;;;;;11.50;10.30;;;6.10;47.10;;;;;;5012610;28;20280;-65
2021/01/01 03:33:26;;;;;;;10.40;9.50;;;6.30;48.90;;;;;;5012301;28;20169;-64
2021/01/01 03:35:52;;;;;;;11.37;10.27;;;6.60;47.60;;;;;;5012552;28;20412;-64
2021/01/01 03:38:18;;;;;;;10.93;9.90;;;6.70;47.40;;;;;;5012328;28;20599;-64
2021/01/01 03:40:45;;;;;;;11.27;10.17;;;6.40;47.30;;;;;;5012344;28;20416;-64
2021/01/01 03:43:11;;;;;;;11.10;10.00;;;6.40;47.20;;;;;;5012348;28;20218;-64
2021/01/01 03:45:36;;;;;;;10.50;9.50;;;6.30;48.20;;;;;;5012242;28;20499;-64
2021/01/01 03:48:02;;;;;;;10.13;9.23;;;6.20;48.00;;;;;;5011952;28;20203;-64
2021/01/01 03:50:27;;;;;;;11.33;10.23;;;6.40;49.30;;;;;;5011906;28;20548;-64
2021/01/01 03:52:53;;;;;;;10.30;9.40;;;6.40;47.00;;;;;;5012156;28;20208;-64
2021/01/01 03:55:18;;;;;;;10.93;9.83;;;6.60;47.60;;;;;;5012135;28;20197;-64
2021/01/01 03:57:44;;;;;;;11.30;10.23;;;6.50;47.20;;;;;;5011892;28;20556;-64
2021/01/01 04:00:10;;;;;;;11.40;10.37;;;6.30;48.30;;;;;;5012029;28;20177;-64
2021/01/01 04:02:35;;;;;;;12.00;10.93;;;6.10;48.50;;;;;;5012035;28;20179;-64
2021/01/01 04:05:01;;;;;;;10.03;9.03;;;6.10;49.10;;;;;;5012025;28;20527;-64
2021/01/01 04:07:27;;;;;;;10.83;9.80;;;6.20;48.70;;;;;;5011723;28;20180;-65
2021/01/01 04:09:52;;;;;;;9.87;9.00;;;6.30;48.80;;;;;;5011938;28;20177;-64
2021/01/01 04:12:18;;;;;;;10.20;9.30;;;6.40;48.20;;;;;;5011950;28;20195;-64
2021/01/01 04:14:44;;;;;;;9.50;8.57;;;6.20;49.20;;;;;;5011776;28;20765;-65
2021/01/01 04:17:10;;;;;;;11.70;9.43;;;6.50;47.40;;;;;;5011549;28;20423;-65
2021/01/01 04:19:35;;;;;;;10.20;9.30;;;6.50;48.00;;;;;;5011912;28;20177;-64
2021/01/01 04:22:01;;;;;;;10.80;9.70;;;6.60;47.30;;;;;;5012043;28;20226;-64
2021/01/01 04:24:26;;;;;;;13.33;11.10;;;6.30;47.70;;;;;;5011520;28;20224;-64
2021/01/01 04:26:52;;;;;;;11.67;10.57;;;6.40;49.40;;;;;;5011744;28;20181;-65
2021/01/01 04:29:17;;;;;;;10.90;9.73;;;6.20;49.20;;;;;;5011306;28;20204;-64
2021/01/01 04:31:43;;;;;;;9.53;8.73;;;6.40;49.40;;;;;;5011699;28;20323;-64
2021/01/01 04:34:10;;;;;;;11.53;10.40;;;6.70;47.20;;;;;;5011501;28;20440;-64
2021/01/01 04:36:35;;;;;;;10.83;9.83;;;6.90;45.80;;;;;;5011501;28;20611;-64
2021/01/01 04:39:02;;;;;;;12.43;11.27;;;7.00;45.90;;;;;;5011363;28;20488;-64
2021/01/01 04:41:28;;;;;;;11.67;10.57;;;6.90;46.10;;;;;;5011530;28;20177;-64
2021/01/01 04:43:54;;;;;;;10.60;9.60;;;6.60;47.10;;;;;;5011397;28;20448;-64
2021/01/01 04:46:19;;;;;;;11.23;10.13;;;6.60;47.20;;;;;;5011573;28;20408;-64
2021/01/01 04:48:46;;;;;;;11.63;10.63;;;6.60;48.50;;;;;;5011543;28;20209;-64
2021/01/01 04:51:12;;;;;;;12.67;10.30;;;6.60;48.30;;;;;;5011420;28;20204;-64
2021/01/01 04:53:39;;;;;;;10.90;9.87;;;6.80;48.00;;;;;;5011286;28;20433;-65
2021/01/01 04:56:06;;;;;;;9.97;9.03;;;6.60;48.40;;;;;;5011287;28;20408;-64
2021/01/01 04:58:32;;;;;;;10.33;9.33;;;6.70;48.10;;;;;;5010949;28;20534;-65
2021/01/01 05:00:58;;;;;;;11.67;10.57;;;6.70;47.90;;;;;;5011165;28;20412;-64
2021/01/01 05:03:24;;;;;;;10.93;9.83;;;6.60;47.90;;;;;;5010511;28;20412;-64
2021/01/01 05:05:51;;;;;;;10.37;9.37;;;6.60;47.60;;;;;;5011162;28;20178;-65
2021/01/01 05:08:17;;;;;;;13.57;9.97;;;6.60;48.20;;;;;;5010866;28;20456;-64
2021/01/01 05:10:43;;;;;;;11.90;10.37;;;6.90;47.90;;;;;;5011115;28;20784;-64
2021/01/01 05:13:16;;;;;;;11.63;10.43;;;7.10;46.80;;;;;;5011105;28;20405;-65
2021/01/01 05:15:44;;;;;;;10.80;9.70;;;7.20;46.80;;;;;;5011068;28;21070;-65
2021/01/01 05:18:24;;;;;;;11.57;10.47;;;7.40;45.30;;;;;;5010811;28;20427;-65
2021/01/01 05:20:54;;;;;;;11.23;10.13;;;7.20;45.70;;;;;;5010910;28;20420;-65
2021/01/01 05:23:28;;;;;;;10.37;9.47;;;7.00;46.60;;;;;;5010937;28;20413;-65
2021/01/01 05:26:15;;;;;;;11.50;10.40;;;7.10;46.40;;;;;;5010927;28;20434;-64
2021/01/01 05:28:56;;;;;;;12.27;11.07;;;7.10;47.40;;;;;;5010618;28;20463;-64
2021/01/01 05:31:27;;;;;;;10.57;9.47;;;7.10;46.30;;;;;;5010927;28;20450;-65
2021/01/01 05:34:01;;;;;;;10.40;9.40;;;7.30;46.30;;;;;;5010749;28;20470;-64
2021/01/01 05:36:33;;;;;;;11.67;10.63;;;7.10;46.40;;;;;;5010885;28;20418;-65
2021/01/01 05:39:00;;;;;;;10.17;9.17;;;7.30;46.80;;;;;;5010698;28;20419;-65
2021/01/01 05:41:37;;;;;;;11.63;10.63;;;7.60;47.50;;;;;;5010888;28;20412;-64
2021/01/01 05:44:07;;;;;;;10.47;9.47;;;7.60;45.00;;;;;;5010778;28;20442;-65
2021/01/01 05:46:33;;;;;;;11.33;9.93;;;7.60;45.90;;;;;;5010657;28;20413;-64
2021/01/01 05:49:02;;;;;;;11.60;10.50;;;7.60;45.50;;;;;;5010561;28;20470;-64
2021/01/01 05:51:28;;;;;;;10.70;9.70;;;7.70;45.60;;;;;;5010799;28;20182;-64
2021/01/01 05:54:10;;;;;;;10.80;9.80;;;7.60;45.70;;;;;;5010665;28;20437;-65
2021/01/01 05:56:38;;;;;;;9.67;8.77;;;7.50;45.50;;;;;;5010829;28;20169;-64
2021/01/01 05:59:08;;;;;;;12.03;10.70;;;7.60;45.20;;;;;;5010533;28;20447;-64
2021/01/01 06:01:35;;;;;;;9.80;8.80;;;7.40;46.20;;;;;;5010889;28;20833;-64
2021/01/01 06:04:02;;;;;;;9.37;8.37;;;7.50;45.90;;;;;;5010534;28;20454;-65
2021/01/01 06:06:32;;;;;;;9.30;8.40;;;7.30;45.30;;;;;;5010620;28;20428;-64
2021/01/01 06:09:03;;;;;;;7.80;7.10;;;7.50;45.20;;;;;;5010338;28;20828;-65
2021/01/01 06:11:37;;;;;;;7.73;6.87;;;7.40;44.50;;;;;;5010576;28;20903;-65
2021/01/01 06:14:04;;;;;;;7.30;6.63;;;7.30;44.50;;;;;;5011434;28;20939;-65
2021/01/01 06:16:43;;;;;;;7.57;6.97;;;7.10;45.20;;;;;;5013982;28;20420;-64
2021/01/01 06:19:11;;;;;;;6.90;6.30;;;7.30;44.70;;;;;;5013846;28;20423;-64
2021/01/01 06:21:41;;;;;;;7.03;6.43;;;7.00;45.00;;;;;;5013951;28;20496;-64
2021/01/01 06:24:12;;;;;;;6.80;6.27;;;7.00;46.10;;;;;;5013674;28;20499;-64
2021/01/01 06:26:37;;;;;;;7.30;6.53;;;7.20;45.20;;;;;;5013802;28;20423;-65
2021/01/01 06:29:05;;;;;;;7.90;7.10;;;7.00;45.20;;;;;;5013415;28;20799;-64
2021/01/01 06:31:31;;;;;;;5.67;5.27;;;7.10;44.90;;;;;;5013707;28;20184;-64
2021/01/01 06:33:57;;;;;;;6.83;6.13;;;7.20;45.40;;;;;;5013848;28;21035;-64
2021/01/01 06:36:38;;;;;;;7.13;6.53;;;7.10;44.60;;;;;;5013598;28;20409;-64
2021/01/01 06:39:04;;;;;;;6.83;6.23;;;7.00;46.40;;;;;;5013401;28;20188;-65
2021/01/01 06:41:44;;;;;;;6.57;5.97;;;6.80;46.30;;;;;;5013445;28;20412;-64
2021/01/01 06:44:10;;;;;;;6.20;5.70;;;6.60;46.60;;;;;;5013424;28;20857;-65
2021/01/01 06:46:40;;;;;;;6.33;5.77;;;6.70;46.30;;;;;;5013431;28;20443;-64
2021/01/01 06:49:07;;;;;;;6.00;5.50;;;6.70;46.20;;;;;;5013080;28;20200;-64
2021/01/01 06:51:33;;;;;;;6.50;5.90;;;6.70;46.80;;;;;;5013529;28;20412;-64
2021/01/01 06:54:17;;;;;;;5.73;5.17;;;6.90;44.90;;;;;;5013195;28;20439;-65
2021/01/01 06:56:43;;;;;;;12.87;10.13;;;7.10;44.00;;;;;;5013270;28;20780;-64
2021/01/01 06:59:14;;;;;;;5.40;5.00;;;6.70;45.80;;;;;;5012946;28;21085;-64
2021/01/01 07:01:41;;;;;;;6.37;5.87;;;6.80;45.40;;;;;;5013162;28;20420;-64
2021/01/01 07:04:07;;;;;;;6.30;5.70;;;6.70;44.80;;;;;;5012676;28;20488;-65
2021/01/01 07:06:34;;;;;;;6.33;5.83;;;6.90;45.40;;;;;;5009950;28;20886;-64
2021/01/01 07:09:00;;;;;;;5.67;5.20;;;6.90;44.50;;;;;;5012850;28;20299;-64
2021/01/01 07:11:28;;;;;;;5.93;5.43;;;6.90;43.90;;;;;;5012961;28;20415;-64
2021/01/01 07:13:56;;;;;;;5.77;5.37;;;6.90;44.50;;;;;;5012685;28;20931;-65
2021/01/01 07:16:23;;;;;;;5.93;5.43;;;7.00;43.90;;;;;;5012799;28;20412;-64
2021/01/01 07:18:50;;;;;;;6.60;6.00;;;7.10;44.70;;;;;;5012616;28;20438;-65
2021/01/01 07:21:16;;;;;;;6.30;5.70;;;7.10;43.10;;;;;;5012739;28;20426;-64
2021/01/01 07:23:43;;;;;;;5.30;4.90;;;7.00;43.80;;;;;;5012532;28;20447;-64
2021/01/01 07:26:09;;;;;;;6.47;5.40;;;7.10;43.10;;;;;;5012007;28;20844;-64
2021/01/01 07:28:38;;;;;;;5.57;5.13;;;6.60;42.50;;;;;;5012218;28;20962;-64
2021/01/01 07:31:04;;;;;;;5.63;4.90;;;6.40;45.10;;;;;;5012654;28;20443;-65
2021/01/01 07:33:31;;;;;;;5.30;4.80;;;6.50;46.70;;;;;;5012491;28;20781;-65
2021/01/01 07:36:00;;;;;;;5.33;4.93;;;6.70;45.00;;;;;;5012681;28;20173;-64
2021/01/01 07:38:28;;;;;;;5.40;4.90;;;7.00;43.90;;;;;;5012387;28;20470;-64
2021/01/01 07:40:55;;;;;;;5.73;5.33;;;6.70;42.30;;;;;;5011706;28;20427;-64
2021/01/01 07:43:21;;;;;;;5.70;5.30;;;6.50;44.80;;;;;;5008333;28;20424;-64
2021/01/01 07:45:47;;;;;;;5.30;4.90;;;6.30;44.60;;;;;;5012053;28;20448;-64
2021/01/01 07:48:13;;;;;;;5.10;4.70;;;6.30;45.40;;;;;;5011699;28;20463;-63
2021/01/01 07:50:39;;;;;;;4.83;4.43;;;6.30;45.50;;;;;;5011596;28;20489;-64
2021/01/01 07:53:10;;;;;;;5.60;5.10;;;6.20;44.70;;;;;;5012061;28;20200;-64
2021/01/01 07:55:37;;;;;;;5.40;5.00;;;6.40;44.60;;;;;;5011536;28;20443;-64
2021/01/01 07:58:08;;;;;;;5.43;5.00;;;6.40;44.60;;;;;;5011472;28;20443;-64
2021/01/01 08:00:38;;;;;;;6.00;4.80;;;6.30;44.50;;;;;;4992210;28;20818;-64
2021/01/01 08:03:05;;;;;;;5.37;4.97;;;6.20;44.50;;;;;;4991955;28;21059;-65
2021/01/01 08:05:31;;;;;;;5.10;4.70;;;6.50;44.30;;;;;;4992028;28;20512;-63
2021/01/01 08:08:13;;;;;;;4.60;4.20;;;6.50;43.90;;;;;;4991748;28;20951;-63
2021/01/01 08:10:40;;;;;;;5.20;4.80;;;6.60;43.10;;;;;;4992051;28;20463;-63
2021/01/01 08:13:17;;;;;;;4.13;3.83;;;6.50;43.90;;;;;;4991981;28;20413;-64
2021/01/01 08:15:44;;;;;;;5.87;5.37;;;6.60;43.80;;;;;;4991899;28;20440;-64
2021/01/01 08:18:09;;;;;;;5.20;4.10;;;6.70;44.20;;;;;;4991474;28;20437;-64
2021/01/01 08:20:35;;;;;;;4.23;3.90;;;6.90;42.50;;;;;;4991828;28;20409;-64
2021/01/01 08:23:07;;;;;;;5.17;4.73;;;6.90;41.20;;;;;;4992018;28;20214;-64
2021/01/01 08:25:33;;;;;;;5.03;4.63;;;6.90;41.50;;;;;;4991356;28;20695;-64
2021/01/01 08:28:00;;;;;;;4.63;4.30;;;6.70;41.90;;;;;;4991490;28;20453;-64
2021/01/01 08:30:26;;;;;;;4.27;3.93;;;6.70;42.20;;;;;;4991658;28;20416;-64
2021/01/01 08:32:52;;;;;;;4.50;4.20;;;6.70;43.00;;;;;;4991279;28;20406;-64
2021/01/01 08:35:18;;;;;;;4.70;4.30;;;6.80;42.80;;;;;;4991425;28;20439;-64
2021/01/01 08:37:43;;;;;;;4.40;4.10;;;6.90;41.80;;;;;;4991480;28;20661;-64
2021/01/01 08:40:10;;;;;;;4.87;4.47;;;6.30;41.40;;;;;;4991231;28;20192;-64
2021/01/01 08:42:38;;;;;;;4.63;4.33;;;6.30;43.50;;;;;;4991484;28;20501;-64
2021/01/01 08:45:06;;;;;;;4.70;4.30;;;6.50;42.70;;;;;;4991334;28;20468;-64
2021/01/01 08:47:40;;;;;;;4.17;3.87;;;6.70;44.00;;;;;;4990908;28;20409;-64
2021/01/01 08:50:26;;;;;;;5.43;5.03;;;6.90;43.50;;;;;;4991447;28;20483;-64
2021/01/01 08:53:00;;;;;;;4.97;4.57;;;7.00;42.50;;;;;;4991087;28;20428;-64
2021/01/01 08:55:26;;;;;;;4.53;3.90;;;7.00;42.80;;;;;;4991359;28;20950;-64
2021/01/01 08:58:13;;;;;;;4.40;4.10;;;6.90;42.50;;;;;;4991187;28;20467;-65
2021/01/01 09:00:45;;;;;;;4.77;3.87;;;6.60;40.50;;;;;;4991307;28;20942;-65
2021/01/01 09:03:12;;;;;;;4.47;4.10;;;6.70;42.00;;;;;;4991471;28;20421;-64
2021/01/01 09:05:38;;;;;;;3.80;3.40;;;6.80;42.10;;;;;;4991417;28;20443;-65
2021/01/01 09:08:09;;;;;;;3.80;3.50;;;7.10;40.20;;;;;;4990717;28;20916;-65
2021/01/01 09:10:36;;;;;;;3.27;3.07;;;7.10;40.10;;;;;;4991080;28;20224;-65
2021/01/01 09:13:16;;;;;;;5.07;3.73;;;6.30;41.40;;;;;;4991075;28;20929;-65
2021/01/01 09:15:42;;;;;;;4.00;3.70;;;6.00;42.30;;;;;;4990564;28;20404;-64
2021/01/01 09:18:09;;;;;;;4.87;4.47;;;6.20;44.00;;;;;;4990864;28;20412;-64
2021/01/01 09:20:35;;;;;;;4.10;3.80;;;6.40;44.40;;;;;;4991168;28;20417;-65
2021/01/01 09:23:04;;;;;;;5.53;4.03;;;6.40;43.00;;;;;;4990764;28;20420;-65
2021/01/01 09:25:31;;;;;;;5.63;4.17;;;6.60;52.00;;;;;;4990857;28;20449;-65
2021/01/01 09:27:58;;;;;;;8.87;4.33;;;7.40;54.00;;;;;;4990805;28;20960;-65
2021/01/01 09:30:25;;;;;;;3.50;3.30;;;7.70;49.90;;;;;;4990758;28;20405;-65
2021/01/01 09:32:54;;;;;;;3.93;3.63;;;7.80;49.50;;;;;;4991048;28;21006;-65
2021/01/01 09:35:20;;;;;;;3.73;3.53;;;8.40;55.20;;;;;;4991146;28;20975;-65
2021/01/01 09:37:53;;;;;;;3.67;3.47;;;8.90;41.60;;;;;;4990316;28;20417;-65
2021/01/01 09:40:19;;;;;;;4.17;3.87;;;8.70;40.80;;;;;;4991002;28;20417;-64
2021/01/01 09:42:45;;;;;;;3.80;3.50;;;8.30;40.50;;;;;;4990908;28;20425;-64
2021/01/01 09:45:11;;;;;;;3.80;3.50;;;8.00;37.40;;;;;;4990649;28;20508;-65
2021/01/01 09:47:37;;;;;;;3.90;3.60;;;7.50;37.60;;;;;;4990572;28;20201;-64
2021/01/01 09:50:04;;;;;;;4.00;3.70;;;7.20;38.60;;;;;;4993464;28;20413;-64
2021/01/01 09:52:30;;;;;;;3.97;3.77;;;7.20;39.60;;;;;;4994292;28;20181;-64
2021/01/01 09:54:55;;;;;;;3.37;3.17;;;7.20;40.00;;;;;;4994390;28;20444;-64
2021/01/01 09:57:21;;;;;;;3.73;3.43;;;7.40;39.70;;;;;;4994265;28;20186;-65
2021/01/01 09:59:46;;;;;;;3.50;3.30;;;7.40;39.10;;;;;;4994275;28;20253;-64
2021/01/01 10:02:12;;;;;;;3.57;3.37;;;7.30;39.40;;;;;;4994453;28;20220;-64
2021/01/01 10:04:37;;;;;;;4.20;3.80;;;7.50;39.20;;;;;;4994287;28;20565;-64
2021/01/01 10:07:03;;;;;;;3.87;3.67;;;7.50;38.90;;;;;;4993827;28;20618;-64
2021/01/01 10:09:28;;;;;;;4.63;4.17;;;7.40;39.30;;;;;;4993028;28;20212;-63
2021/01/01 10:11:57;;;;;;;3.70;3.40;;;7.30;39.80;;;;;;4994163;28;20672;-63
2021/01/01 10:14:22;;;;;;;4.17;3.87;;;7.20;39.00;;;;;;4993923;28;20194;-63
2021/01/01 10:16:49;;;;;;;3.60;3.30;;;7.20;40.20;;;;;;4994206;28;20467;-63
2021/01/01 10:19:15;;;;;;;3.23;3.03;;;7.20;39.30;;;;;;4993937;28;20179;-63
2021/01/01 10:21:41;;;;;;;4.27;3.97;;;7.40;40.40;;;;;;4993874;28;20425;-63
2021/01/01 10:24:06;;;;;;;3.40;3.20;;;7.60;38.50;;;;;;4993887;28;20452;-63
2021/01/01 10:26:32;;;;;;;3.53;3.30;;;7.40;38.80;;;;;;4994209;28;20178;-63
2021/01/01 10:28:57;;;;;;;3.67;3.37;;;7.40;38.80;;;;;;4993707;28;20578;-63
2021/01/01 10:31:23;;;;;;;3.13;2.93;;;7.30;39.20;;;;;;4994163;28;20167;-63
2021/01/01 10:33:49;;;;;;;3.40;3.20;;;7.40;39.40;;;;;;4993884;28;20186;-63
2021/01/01 10:36:15;;;;;;;4.00;3.60;;;7.30;38.70;;;;;;4992569;28;20421;-63
2021/01/01 10:38:41;;;;;;;3.83;3.63;;;7.50;38.50;;;;;;4993173;28;20916;-63
2021/01/01 10:41:11;;;;;;;3.50;3.20;;;7.50;37.70;;;;;;4993682;28;20206;-63
2021/01/01 10:43:37;;;;;;;4.20;3.87;;;7.60;37.70;;;;;;4993834;28;20418;-63
2021/01/01 10:46:02;;;;;;;3.80;3.60;;;7.60;37.60;;;;;;4993408;28;20419;-63
2021/01/01 10:48:28;;;;;;;3.20;3.00;;;7.50;36.70;;;;;;4993232;28;20197;-63
2021/01/01 10:50:53;;;;;;;4.20;3.90;;;7.40;37.40;;;;;;4993610;28;20174;-63
2021/01/01 10:53:19;;;;;;;4.20;3.90;;;7.40;38.50;;;;;;4993071;28;20174;-63
2021/01/01 10:55:45;;;;;;;5.17;4.77;;;7.30;38.40;;;;;;4993199;28;20256;-63
2021/01/01 10:58:11;;;;;;;4.23;3.93;;;7.20;38.60;;;;;;4993163;28;20170;-64
2021/01/01 11:00:36;;;;;;;3.70;3.50;;;7.10;37.60;;;;;;4991625;28;21097;-63
2021/01/01 11:03:02;;;;;;;4.53;4.23;;;7.10;39.90;;;;;;4992878;28;20237;-64
2021/01/01 11:05:27;;;;;;;4.50;4.20;;;7.10;38.60;;;;;;4992859;28;20205;-64
2021/01/01 11:07:53;;;;;;;3.90;3.60;;;7.30;38.10;;;;;;4992431;28;20229;-64
2021/01/01 11:10:18;;;;;;;4.07;3.67;;;7.40;38.20;;;;;;4992829;28;20176;-64
2021/01/01 11:12:44;;;;;;;3.30;3.10;;;7.30;37.50;;;;;;4992886;28;20175;-65
2021/01/01 12:24:20;;;;;;;4.23;3.83;;;7.80;36.80;;;;;;5011304;28;20428;-65
2021/01/01 12:26:29;;;;;;;4.13;3.83;;;7.70;35.70;;;;;;5012308;28;20436;-65
2021/01/01 12:28:55;;;;;;;6.13;5.57;;;7.80;35.40;;;;;;5010841;28;20456;-66
2021/01/01 12:31:21;;;;;;;3.77;3.47;;;7.70;35.90;;;;;;5011327;28;20412;-65
2021/01/01 12:33:46;;;;;;;4.97;4.57;;;7.70;36.30;;;;;;5011493;28;20200;-65
2021/01/01 12:36:12;;;;;;;4.67;4.37;;;7.70;34.50;;;;;;5011476;28;20900;-65
2021/01/01 12:38:37;;;;;;;6.30;5.70;;;7.80;35.70;;;;;;5011182;28;20185;-65
2021/01/01 12:41:03;;;;;;;5.30;4.90;;;7.80;35.30;;;;;;5011305;28;20546;-65
2021/01/01 12:43:28;;;;;;;26.37;17.57;;;8.00;36.20;;;;;;5010363;28;20200;-65
2021/01/01 12:45:54;;;;;;;6.10;5.40;;;8.00;35.50;;;;;;5011032;28;20458;-64
2021/01/01 12:48:20;;;;;;;5.30;4.90;;;7.90;34.20;;;;;;5011316;28;20240;-65
2021/01/01 12:50:45;;;;;;;4.67;4.27;;;7.90;33.80;;;;;;5011429;28;20273;-65
2021/01/01 12:53:11;;;;;;;4.30;4.00;;;8.00;34.20;;;;;;5003197;28;20209;-64
2021/01/01 12:55:37;;;;;;;4.83;4.43;;;7.90;34.30;;;;;;5006150;28;20260;-64
2021/01/01 12:58:04;;;;;;;4.60;4.20;;;8.10;34.90;;;;;;5009009;28;20184;-64
2021/01/01 13:00:29;;;;;;;3.80;3.50;;;8.10;34.80;;;;;;5009461;28;20177;-64
2021/01/01 13:02:58;;;;;;;4.40;4.10;;;8.10;34.30;;;;;;5009156;28;20450;-64
2021/01/01 13:05:23;;;;;;;4.80;4.40;;;8.10;33.80;;;;;;5009138;28;20764;-64
2021/01/01 13:07:49;;;;;;;5.13;4.73;;;8.10;33.80;;;;;;5009093;28;20979;-65
2021/01/01 13:10:15;;;;;;;7.30;6.60;;;7.90;34.70;;;;;;5009075;28;20189;-65
2021/01/01 13:12:40;;;;;;;5.87;5.37;;;8.10;34.00;;;;;;5009288;28;20166;-63
2021/01/01 13:15:07;;;;;;;5.43;4.93;;;8.20;33.10;;;;;;5009011;28;20197;-64
2021/01/01 13:17:33;;;;;;;4.40;4.10;;;7.90;33.30;;;;;;5008612;28;20203;-64
2021/01/01 13:19:58;;;;;;;5.30;4.90;;;7.90;33.80;;;;;;5009169;28;20408;-65
2021/01/01 13:22:24;;;;;;;4.67;4.37;;;8.00;33.70;;;;;;5008921;28;20165;-65
2021/01/01 13:24:49;;;;;;;4.77;4.40;;;8.10;32.90;;;;;;5010506;28;20205;-64
2021/01/01 13:27:15;;;;;;;4.63;4.23;;;8.10;33.50;;;;;;5012896;28;20190;-65
2021/01/01 13:29:41;;;;;;;5.10;4.70;;;8.20;33.40;;;;;;5013076;28;20211;-64
2021/01/01 13:32:06;;;;;;;5.03;4.63;;;7.70;33.70;;;;;;5012795;28;20176;-64
2021/01/01 13:34:32;;;;;;;4.97;4.50;;;7.70;34.30;;;;;;5012872;28;20200;-64
2021/01/01 13:36:57;;;;;;;5.83;5.23;;;7.70;35.30;;;;;;5012987;28;20173;-64
2021/01/01 13:39:24;;;;;;;5.27;4.87;;;7.60;34.60;;;;;;5012474;28;20188;-64
2021/01/01 13:41:51;;;;;;;5.80;5.30;;;7.70;33.80;;;;;;5012740;28;20320;-64
2021/01/01 13:44:17;;;;;;;4.83;4.43;;;7.90;33.80;;;;;;5012922;28;20522;-64
2021/01/01 13:46:42;;;;;;;4.63;4.27;;;7.90;33.50;;;;;;5012575;28;20507;-65
2021/01/01 13:49:08;;;;;;;4.90;4.50;;;7.80;32.80;;;;;;5012382;28;20209;-64
2021/01/01 13:51:35;;;;;;;5.57;5.07;;;7.60;33.90;;;;;;5011370;28;20181;-64
2021/01/01 13:54:01;;;;;;;6.80;6.10;;;7.80;33.50;;;;;;5012280;28;20185;-65
2021/01/01 13:56:27;;;;;;;10.40;9.37;;;7.60;33.90;;;;;;5012548;28;20440;-64
2021/01/01 13:58:53;;;;;;;4.53;4.20;;;7.50;34.20;;;;;;5012285;28;20883;-64
2021/01/01 14:01:21;;;;;;;5.40;4.90;;;7.70;34.50;;;;;;5012426;28;20592;-65